createdAt,value
2022-08-18T00:01:30.976Z,18.12
2022-08-18T00:04:03.653Z,18.08
2022-08-18T00:06:41.944Z,18.04
2022-08-18T00:09:11.168Z,18.05
2022-08-18T00:11:44.145Z,18.02
2022-08-18T00:14:21.583Z,17.97
2022-08-18T00:16:54.101Z,17.93
2022-08-18T00:19:45.583Z,17.91
2022-08-18T00:22:16.075Z,17.96
2022-08-18T00:24:54.994Z,17.99
2022-08-18T00:27:29.515Z,17.98
2022-08-18T00:30:09.830Z,18.01
2022-08-18T00:32:47.653Z,17.99
2022-08-18T00:35:33.656Z,18.03
2022-08-18T00:38:06.304Z,17.95
2022-08-18T00:40:42.739Z,17.94
2022-08-18T00:43:23.044Z,17.92
2022-08-18T00:45:49.965Z,17.84
2022-08-18T00:48:17.322Z,17.87
2022-08-18T00:50:58.099Z,17.81
2022-08-18T00:53:53.644Z,17.81
2022-08-18T00:56:50.399Z,17.79
2022-08-18T01:00:13.097Z,17.83
2022-08-18T01:02:55.790Z,17.85
2022-08-18T01:05:43.463Z,17.89
2022-08-18T01:08:16.522Z,17.91
2022-08-18T01:10:46.343Z,17.95
2022-08-18T01:13:13.259Z,17.92
2022-08-18T01:15:40.448Z,17.97
2022-08-18T01:18:33.508Z,17.98
2022-08-18T01:21:24.463Z,17.98
2022-08-18T01:23:55.897Z,17.93
2022-08-18T01:26:27.626Z,17.93
2022-08-18T01:29:06.147Z,17.93
2022-08-18T01:31:56.246Z,17.92
2022-08-18T01:34:27.495Z,17.96
2022-08-18T01:36:58.477Z,17.94
2022-08-18T01:41:24.475Z,17.91
2022-08-18T01:42:17.409Z,17.96
2022-08-18T01:44:51.458Z,17.94
2022-08-18T01:47:19.998Z,17.92
2022-08-18T01:49:49.281Z,17.89
2022-08-18T01:52:21.978Z,17.92
2022-08-18T01:54:51.583Z,17.94
2022-08-18T01:57:22.106Z,17.91
2022-08-18T01:59:48.872Z,17.91
2022-08-18T02:02:27.835Z,17.86
2022-08-18T02:05:05.362Z,17.86
2022-08-18T02:07:36.490Z,17.85
2022-08-18T02:10:11.784Z,17.90
2022-08-18T02:12:41.917Z,17.90
2022-08-18T02:15:10.634Z,17.91
2022-08-18T02:17:45.870Z,17.90
2022-08-18T02:20:19.277Z,17.88
2022-08-18T02:22:48.310Z,17.89
2022-08-18T02:25:18.157Z,18.03
2022-08-18T02:27:46.089Z,18.00
2022-08-18T02:30:18.577Z,18.01
2022-08-18T02:32:49.439Z,18.04
2022-08-18T02:35:16.948Z,18.06
2022-08-18T02:37:48.094Z,18.07
2022-08-18T02:40:17.818Z,18.08
2022-08-18T02:42:47.566Z,18.32
2022-08-18T02:45:15.237Z,18.31
2022-08-18T02:47:53.416Z,18.30
2022-08-18T02:50:20.948Z,18.41
2022-08-18T02:52:48.966Z,18.39
2022-08-18T02:55:16.384Z,18.35
2022-08-18T02:57:49.156Z,18.35
2022-08-18T03:00:19.292Z,18.46
2022-08-18T03:02:54.519Z,18.44
2022-08-18T03:05:21.233Z,18.54
2022-08-18T03:07:48.259Z,18.53
2022-08-18T03:10:31.508Z,18.47
2022-08-18T03:12:59.206Z,18.44
2022-08-18T03:15:26.534Z,18.45
2022-08-18T03:17:54.069Z,18.53
2022-08-18T03:20:30.240Z,18.45
2022-08-18T03:22:58.458Z,18.36
2022-08-18T03:25:26.384Z,18.31
2022-08-18T03:27:53.253Z,18.35
2022-08-18T03:30:20.072Z,18.35
2022-08-18T03:32:56.029Z,18.33
2022-08-18T03:35:22.681Z,18.27
2022-08-18T03:37:49.511Z,18.23
2022-08-18T03:40:16.460Z,18.23
2022-08-18T03:42:43.483Z,18.19
2022-08-18T03:45:13.208Z,18.17
2022-08-18T03:47:45.950Z,18.15
2022-08-18T03:50:14.158Z,18.08
2022-08-18T03:52:41.595Z,18.09
2022-08-18T03:55:09.496Z,18.08
2022-08-18T03:57:39.078Z,18.16
2022-08-18T04:00:09.721Z,18.14
2022-08-18T04:02:36.555Z,18.13
2022-08-18T04:05:05.348Z,18.14
2022-08-18T04:07:32.852Z,18.16
2022-08-18T04:09:59.677Z,18.15
2022-08-18T04:12:26.773Z,18.21
2022-08-18T04:14:53.558Z,18.22
2022-08-18T04:17:25.345Z,18.24
2022-08-18T04:19:56.920Z,18.30
2022-08-18T04:22:34.173Z,18.37
2022-08-18T04:25:01.491Z,18.40
2022-08-18T04:27:29.985Z,18.43
2022-08-18T04:29:57.102Z,18.48
2022-08-18T04:32:29.813Z,18.57
2022-08-18T04:34:57.059Z,18.60
2022-08-18T04:37:24.828Z,18.66
2022-08-18T04:39:54.754Z,18.72
2022-08-18T04:42:21.579Z,18.75
2022-08-18T04:44:50.275Z,18.79
2022-08-18T04:47:17.241Z,18.79
2022-08-18T04:49:44.652Z,18.75
2022-08-18T04:52:39.925Z,18.79
2022-08-18T04:55:11.147Z,18.80
2022-08-18T04:57:42.631Z,18.79
2022-08-18T05:00:12.588Z,18.83
2022-08-18T05:02:40.322Z,18.90
2022-08-18T05:05:08.361Z,19.02
2022-08-18T05:07:35.155Z,19.20
2022-08-18T05:10:02.561Z,19.33
2022-08-18T05:12:29.591Z,19.39
2022-08-18T05:14:59.292Z,19.53
2022-08-18T05:17:30.293Z,19.56
2022-08-18T05:33:29.727Z,19.88
2022-08-18T05:36:12.396Z,19.98
2022-08-18T05:39:24.063Z,19.99
2022-08-18T05:42:21.512Z,19.99
2022-08-18T05:44:54.689Z,20.08
2022-08-18T05:47:34.009Z,20.29
2022-08-18T05:50:19.613Z,20.45
2022-08-18T05:53:05.597Z,20.74
2022-08-18T05:56:25.517Z,20.87
2022-08-18T05:58:57.470Z,21.17
2022-08-18T06:01:34.996Z,21.46
2022-08-18T06:04:07.061Z,21.68
2022-08-18T06:06:47.709Z,21.78
2022-08-18T06:09:41.533Z,21.92
2022-08-18T06:12:37.365Z,22.09
2022-08-18T06:19:00.521Z,22.70
2022-08-18T06:24:50.528Z,22.73
2022-08-18T06:27:41.740Z,22.91
2022-08-18T06:30:36.010Z,22.81
2022-08-18T06:33:14.923Z,22.84
2022-08-18T06:36:14.363Z,22.52
2022-08-18T06:39:39.637Z,22.85
2022-08-18T06:45:12.961Z,23.26
2022-08-18T06:48:03.285Z,23.08
2022-08-18T06:56:41.182Z,23.41
2022-08-18T06:59:27.107Z,23.76
2022-08-18T07:02:26.941Z,23.88
2022-08-18T07:05:28.794Z,24.39
2022-08-18T07:08:32.288Z,24.79
2022-08-18T07:11:28.452Z,24.40
2022-08-18T07:14:17.064Z,24.74
2022-08-18T07:16:58.485Z,24.73
2022-08-18T07:19:32.032Z,24.99
2022-08-18T07:22:16.991Z,25.30
2022-08-18T07:24:49.347Z,25.10
2022-08-18T07:27:41.541Z,25.25
2022-08-18T07:30:31.526Z,25.65
2022-08-18T07:33:23.019Z,25.68
2022-08-18T07:36:09.287Z,25.63
2022-08-18T07:38:57.633Z,25.89
2022-08-18T07:42:37.353Z,26.02
2022-08-18T07:45:45.686Z,25.91
2022-08-18T07:48:40.631Z,25.85
2022-08-18T07:51:24.144Z,26.29
2022-08-18T07:54:49.933Z,26.62
2022-08-18T07:57:42.434Z,26.91
2022-08-18T08:00:57.546Z,26.82
2022-08-18T08:03:53.806Z,26.68
2022-08-18T08:07:20.686Z,26.98
2022-08-18T08:10:28.556Z,27.30
2022-08-18T08:13:10.188Z,27.18
2022-08-18T08:16:09.307Z,27.07
2022-08-18T08:18:41.803Z,27.44
2022-08-18T08:21:19.895Z,27.57
2022-08-18T08:24:11.859Z,27.70
2022-08-18T08:27:23.523Z,27.15
2022-08-18T08:30:12.487Z,27.65
2022-08-18T08:33:30.589Z,27.82
2022-08-18T08:36:30.390Z,27.59
2022-08-18T08:39:26.122Z,27.82
2022-08-18T08:42:30.871Z,27.85
2022-08-18T08:45:11.844Z,27.71
2022-08-18T08:48:09.932Z,27.40
2022-08-18T08:50:57.955Z,27.04
2022-08-18T08:53:46.942Z,26.91
2022-08-18T08:56:20.692Z,27.44
2022-08-18T08:59:00.267Z,27.81
2022-08-18T09:01:55.411Z,27.53
2022-08-18T09:04:54.733Z,27.51
2022-08-18T09:07:58.929Z,27.83
2022-08-18T09:11:26.800Z,27.98
2022-08-18T09:14:21.182Z,28.59
2022-08-18T09:17:54.039Z,28.47
2022-08-18T09:21:05.565Z,28.90
2022-08-18T09:24:06.947Z,28.65
2022-08-18T09:26:49.284Z,27.97
2022-08-18T09:29:52.580Z,27.90
2022-08-18T09:32:19.199Z,27.25
2022-08-18T09:35:13.835Z,26.95
2022-08-18T09:38:39.583Z,27.79
2022-08-18T09:41:32.961Z,27.98
2022-08-18T09:44:17.958Z,28.02
2022-08-18T09:46:48.638Z,28.14
2022-08-18T09:49:27.307Z,28.31
2022-08-18T09:52:24.473Z,28.74
2022-08-18T09:55:57.889Z,29.06
2022-08-18T09:58:29.130Z,29.21
2022-08-18T10:01:30.303Z,28.33
2022-08-18T10:04:15.498Z,27.48
2022-08-18T10:06:51.618Z,27.83
2022-08-18T10:09:49.264Z,28.57
2022-08-18T10:13:21.679Z,28.85
2022-08-18T10:16:22.647Z,29.42
2022-08-18T10:19:39.334Z,29.97
2022-08-18T10:22:10.881Z,30.19
2022-08-18T10:24:51.979Z,30.16
2022-08-18T10:27:46.490Z,30.33
2022-08-18T10:31:06.521Z,30.39
2022-08-18T10:34:16.802Z,30.68
2022-08-18T10:39:45.424Z,30.05
2022-08-18T10:42:40.203Z,30.71
2022-08-18T10:45:24.944Z,30.90
2022-08-18T10:48:05.018Z,31.50
2022-08-18T10:51:21.506Z,31.15
2022-08-18T10:54:54.046Z,30.29
2022-08-18T10:58:00.501Z,29.46
2022-08-18T11:00:56.315Z,28.49
2022-08-18T11:04:33.645Z,28.25
2022-08-18T11:07:18.241Z,28.49
2022-08-18T11:10:04.571Z,28.15
2022-08-18T11:13:03.282Z,27.84
2022-08-18T11:15:55.222Z,27.64
2022-08-18T11:18:43.123Z,27.36
2022-08-18T11:21:44.576Z,27.23
2022-08-18T11:24:31.359Z,27.24
2022-08-18T11:27:09.637Z,27.13
2022-08-18T11:29:46.536Z,27.20
2022-08-18T11:32:35.457Z,27.22
2022-08-18T11:35:21.377Z,27.16
2022-08-18T11:37:57.639Z,27.25
2022-08-18T11:41:11.421Z,27.36
2022-08-18T11:43:41.196Z,28.10
2022-08-18T11:46:32.526Z,28.34
2022-08-18T11:49:24.455Z,28.20
2022-08-18T11:52:06.505Z,28.01
2022-08-18T11:54:50.712Z,27.85
2022-08-18T11:57:40.912Z,27.52
2022-08-18T12:00:45.712Z,28.21
2022-08-18T12:03:40.977Z,29.05
2022-08-18T12:06:27.010Z,29.83
2022-08-18T12:12:33.413Z,29.62
2022-08-18T12:15:22.719Z,30.25
2022-08-18T12:17:52.847Z,30.46
2022-08-18T12:20:22.599Z,30.61
2022-08-18T12:22:50.828Z,30.57
2022-08-18T12:25:25.402Z,30.37
2022-08-18T12:27:54.398Z,30.12
2022-08-18T12:30:21.304Z,30.06
2022-08-18T12:32:50.737Z,29.35
2022-08-18T12:35:35.090Z,29.05
2022-08-18T12:40:49.131Z,28.91
2022-08-18T12:43:16.038Z,29.29
2022-08-18T12:45:43.247Z,29.51
2022-08-18T12:48:10.458Z,29.25
2022-08-18T12:50:50.167Z,29.12
2022-08-18T12:56:30.528Z,29.04
2022-08-18T12:59:05.455Z,28.66
2022-08-18T13:01:39.804Z,28.93
2022-08-18T13:04:12.967Z,29.20
2022-08-18T13:06:59.463Z,29.25
2022-08-18T13:09:42.939Z,29.04
2022-08-18T13:12:20.750Z,29.24
2022-08-18T13:14:50.993Z,29.06
2022-08-18T13:17:32.393Z,28.70
2022-08-18T13:20:09.982Z,28.57
2022-08-18T13:22:41.650Z,28.67
2022-08-18T13:25:32.761Z,28.55
2022-08-18T13:28:03.052Z,28.36
2022-08-18T13:30:32.744Z,28.32
2022-08-18T13:33:06.046Z,28.45
2022-08-18T13:35:54.834Z,28.77
2022-08-18T13:38:27.313Z,29.23
2022-08-18T13:41:00.679Z,29.27
2022-08-18T13:43:39.664Z,29.33
2022-08-18T13:46:15.555Z,29.67
2022-08-18T13:48:44.529Z,29.84
2022-08-18T13:51:24.014Z,29.76
2022-08-18T13:54:06.620Z,29.47
2022-08-18T13:56:39.834Z,28.88
2022-08-18T13:59:07.264Z,28.40
2022-08-18T14:01:44.690Z,28.16
2022-08-18T14:04:22.738Z,28.10
2022-08-18T14:06:57.895Z,28.06
2022-08-18T14:09:36.954Z,27.94
2022-08-18T14:12:23.308Z,27.90
2022-08-18T14:14:56.933Z,27.86
2022-08-18T14:17:26.513Z,27.74
2022-08-18T14:20:14.864Z,27.84
2022-08-18T14:23:10.536Z,28.04
2022-08-18T14:25:57.114Z,28.35
2022-08-18T14:28:28.338Z,28.52
2022-08-18T14:30:58.570Z,28.40
2022-08-18T14:33:50.902Z,28.50
2022-08-18T14:36:19.133Z,28.54
2022-08-18T14:38:46.250Z,28.67
2022-08-18T14:41:19.532Z,28.62
2022-08-18T14:44:10.332Z,29.35
2022-08-18T14:46:34.730Z,29.81
2022-08-18T14:49:04.036Z,29.95
2022-08-18T14:51:33.582Z,30.04
2022-08-18T14:54:02.415Z,30.13
2022-08-18T14:56:29.721Z,30.15
2022-08-18T14:59:00.502Z,29.77
2022-08-18T15:01:27.617Z,29.71
2022-08-18T15:04:18.630Z,29.52
2022-08-18T15:06:45.969Z,29.26
2022-08-18T15:09:27.152Z,29.06
2022-08-18T15:11:58.431Z,28.84
2022-08-18T15:14:33.530Z,28.74
2022-08-18T15:17:13.281Z,28.59
2022-08-18T15:20:00.422Z,28.82
2022-08-18T15:22:47.847Z,29.28
2022-08-18T15:25:34.202Z,29.52
2022-08-18T15:28:03.658Z,29.92
2022-08-18T15:30:30.409Z,30.07
2022-08-18T15:32:58.943Z,30.09
2022-08-18T15:35:26.029Z,29.95
2022-08-18T15:37:54.695Z,29.72
2022-08-18T15:40:30.508Z,28.94
2022-08-18T15:43:09.606Z,28.32
2022-08-18T15:45:56.097Z,27.98
2022-08-18T15:48:28.400Z,27.95
2022-08-18T15:50:55.828Z,27.93
2022-08-18T15:53:30.033Z,27.95
2022-08-18T15:56:04.437Z,28.25
2022-08-18T15:58:31.461Z,28.51
2022-08-18T16:01:00.525Z,28.59
2022-08-18T16:03:27.389Z,28.45
2022-08-18T16:05:55.801Z,28.47
2022-08-18T16:08:25.856Z,28.31
2022-08-18T16:10:54.540Z,28.05
2022-08-18T16:13:24.517Z,27.82
2022-08-18T16:15:51.221Z,27.62
2022-08-18T16:18:21.121Z,27.53
2022-08-18T16:20:52.637Z,27.54
2022-08-18T16:23:19.863Z,27.88
2022-08-18T16:25:46.557Z,27.99
2022-08-18T16:28:13.373Z,28.07
2022-08-18T16:30:43.546Z,27.96
2022-08-18T16:33:10.343Z,27.83
2022-08-18T16:35:37.771Z,27.66
2022-08-18T16:38:09.500Z,27.34
2022-08-18T16:40:37.762Z,26.83
2022-08-18T16:43:05.947Z,26.17
2022-08-18T16:45:36.585Z,25.61
2022-08-18T16:48:04.122Z,25.19
2022-08-18T16:50:30.848Z,24.85
2022-08-18T16:52:58.225Z,24.53
2022-08-18T16:55:25.154Z,24.38
2022-08-18T16:58:14.903Z,24.43
2022-08-18T17:01:01.752Z,24.83
2022-08-18T17:03:47.617Z,25.26
2022-08-18T17:06:19.364Z,25.59
2022-08-18T17:08:46.970Z,25.20
2022-08-18T17:11:19.641Z,24.92
2022-08-18T17:13:50.523Z,24.82
2022-08-18T17:16:21.237Z,24.84
2022-08-18T17:18:49.032Z,24.94
2022-08-18T17:21:23.119Z,24.77
2022-08-18T17:23:51.850Z,24.54
2022-08-18T17:27:26.409Z,24.23
2022-08-18T17:30:20.110Z,23.91
2022-08-18T17:33:10.306Z,23.70
2022-08-18T17:35:47.948Z,23.54
2022-08-18T17:38:40.303Z,23.40
2022-08-18T17:41:07.234Z,23.27
2022-08-18T17:46:38.179Z,23.04
2022-08-18T17:50:26.754Z,22.91
2022-08-18T17:52:58.097Z,22.75
2022-08-18T17:55:40.970Z,22.65
2022-08-18T17:58:40.536Z,22.56
2022-08-18T18:01:12.434Z,22.49
2022-08-18T18:03:40.987Z,22.41
2022-08-18T18:06:38.510Z,22.35
2022-08-18T18:09:12.579Z,22.26
2022-08-18T18:11:47.069Z,22.15
2022-08-18T18:14:39.438Z,22.08
2022-08-18T18:17:17.478Z,21.98
2022-08-18T18:19:50.610Z,21.86
2022-08-18T18:22:28.732Z,21.77
2022-08-18T18:25:07.771Z,21.68
2022-08-18T18:27:43.615Z,21.59
2022-08-18T18:30:27.560Z,21.50
2022-08-18T18:33:16.593Z,21.45
2022-08-18T18:35:56.947Z,21.38
2022-08-18T18:38:35.434Z,21.34
2022-08-18T18:41:14.202Z,21.28
2022-08-18T18:43:50.103Z,21.19
2022-08-18T18:46:18.960Z,21.19
2022-08-18T18:49:23.042Z,21.09
2022-08-18T18:52:36.913Z,20.99
2022-08-18T18:55:15.977Z,20.92
2022-08-18T18:58:07.012Z,20.88
2022-08-18T19:00:54.088Z,20.79
2022-08-18T19:03:46.779Z,20.75
2022-08-18T19:06:39.682Z,20.74
2022-08-18T19:09:29.652Z,20.70
2022-08-18T19:12:51.743Z,20.66
2022-08-18T19:15:21.755Z,20.67
2022-08-18T19:18:16.822Z,20.62
2022-08-18T19:22:02.096Z,20.56
2022-08-18T19:23:59.463Z,20.50
2022-08-18T19:26:39.276Z,20.43
2022-08-18T19:29:22.148Z,20.36
2022-08-18T19:32:16.573Z,20.27
2022-08-18T19:34:55.780Z,20.14
2022-08-18T19:38:20.765Z,20.07
2022-08-18T19:42:00.503Z,19.99
2022-08-18T19:45:15.971Z,19.93
2022-08-18T19:48:16.379Z,19.89
2022-08-18T19:51:08.421Z,19.87
2022-08-18T19:54:42.018Z,19.84
2022-08-18T19:57:53.936Z,19.79
2022-08-18T20:00:57.462Z,19.74
2022-08-18T20:03:58.816Z,19.68
2022-08-18T20:07:25.032Z,19.61
2022-08-18T20:10:30.145Z,19.58
2022-08-18T20:13:27.647Z,19.55
2022-08-18T20:16:05.463Z,19.53
2022-08-18T20:18:45.637Z,19.52
2022-08-18T20:21:20.229Z,19.51
2022-08-18T20:23:55.851Z,19.48
2022-08-18T20:26:38.063Z,19.44
2022-08-18T20:29:12.624Z,19.44
2022-08-18T20:32:02.775Z,19.39
2022-08-18T20:34:35.397Z,19.33
2022-08-18T20:37:25.537Z,19.26
2022-08-18T20:39:55.942Z,19.22
2022-08-18T20:42:22.676Z,19.18
2022-08-18T20:44:58.930Z,19.17
2022-08-18T20:47:59.588Z,19.11
2022-08-18T20:51:00.983Z,19.09
2022-08-18T20:54:25.018Z,19.06
2022-08-18T20:57:02.357Z,19.10
2022-08-18T20:59:48.260Z,19.10
2022-08-18T21:02:51.847Z,19.12
2022-08-18T21:05:41.767Z,19.16
2022-08-18T21:08:16.271Z,19.20
2022-08-18T21:11:32.014Z,19.22
2022-08-18T21:14:04.070Z,19.19
2022-08-18T21:16:42.453Z,19.19
2022-08-18T21:19:29.912Z,19.21
2022-08-18T21:22:03.927Z,19.21
2022-08-18T21:24:49.768Z,19.19
2022-08-18T21:27:37.503Z,19.18
2022-08-18T21:30:23.610Z,19.14
2022-08-18T21:32:51.756Z,19.11
2022-08-18T21:35:35.385Z,19.08
2022-08-18T21:38:12.154Z,19.05
2022-08-18T21:40:48.910Z,19.04
2022-08-18T21:43:49.855Z,19.03
2022-08-18T21:46:30.538Z,19.02
2022-08-18T21:49:04.079Z,19.00
2022-08-18T21:51:48.333Z,18.99
2022-08-18T21:54:28.513Z,19.00
2022-08-18T21:57:27.537Z,19.01
2022-08-18T22:00:39.413Z,19.00
2022-08-18T22:03:27.141Z,18.99
2022-08-18T22:06:20.032Z,18.97
2022-08-18T22:09:20.329Z,18.91
2022-08-18T22:12:14.394Z,18.87
2022-08-18T22:14:54.377Z,18.81
2022-08-18T22:17:55.670Z,18.73
2022-08-18T22:20:40.146Z,18.71
2022-08-18T22:23:34.096Z,18.70
2022-08-18T22:26:17.306Z,18.67
2022-08-18T22:29:13.149Z,18.63
2022-08-18T22:31:50.207Z,18.62
2022-08-18T22:34:27.710Z,18.60
2022-08-18T22:37:03.532Z,18.58
2022-08-18T22:39:51.845Z,18.56
2022-08-18T22:42:25.751Z,18.53
2022-08-18T22:44:54.240Z,18.50
2022-08-18T22:47:21.773Z,18.47
2022-08-18T22:49:48.494Z,18.47
2022-08-18T22:52:42.512Z,18.47
2022-08-18T22:55:22.070Z,18.44
2022-08-18T22:57:55.618Z,18.43
2022-08-18T23:00:25.242Z,18.41
2022-08-18T23:02:53.975Z,18.40
2022-08-18T23:05:21.916Z,18.37
2022-08-18T23:07:48.850Z,18.36
2022-08-18T23:10:16.716Z,18.36
2022-08-18T23:12:47.275Z,18.34
2022-08-18T23:15:18.001Z,18.31
2022-08-18T23:17:44.956Z,18.31
2022-08-18T23:20:19.940Z,18.32
2022-08-18T23:22:48.310Z,18.30
2022-08-18T23:25:15.778Z,18.29
2022-08-18T23:27:42.836Z,18.29
2022-08-18T23:30:13.025Z,18.31
2022-08-18T23:32:39.681Z,18.36
2022-08-18T23:35:07.251Z,18.35
2022-08-18T23:37:33.910Z,18.36
2022-08-18T23:40:00.684Z,18.38
2022-08-18T23:42:27.591Z,18.37
2022-08-18T23:45:03.640Z,18.39
2022-08-18T23:47:30.567Z,18.40
2022-08-18T23:49:57.809Z,18.40
2022-08-18T23:52:24.518Z,18.38
2022-08-18T23:54:51.221Z,18.37
2022-08-18T23:57:17.874Z,18.34
2022-08-18T23:59:44.563Z,18.37
